Time;durP1;ratioP1;P1;durP2;ratioP2;P2;SDS_P1;SDS_P2;PMS_P1;PMS_P2;Temp;Humidity;BMP_temperature;BMP_pressure;BME280_temperature;BME280_humidity;BME280_pressure;Samples;Min_cycle;Max_cycle;Signal;HPM_P1;HPM_P2
2022/01/04 00:00:17;;;;;;;20.90;9.90;;;;;4.30;97149.20;;;;111702;1242;41465;-71
2022/01/04 00:03:06;;;;;;;18.60;9.60;;;;;4.20;97153.60;;;;111530;1243;42439;-71
2022/01/04 00:05:37;;;;;;;16.90;8.40;;;;;4.20;97158.40;;;;111445;1244;41299;-72
2022/01/04 00:08:10;;;;;;;16.30;7.60;;;;;4.20;97162.60;;;;111506;1244;41266;-64
2022/01/04 00:10:39;;;;;;;16.00;7.00;;;;;4.20;97158.80;;;;111603;1244;41206;-68
2022/01/04 00:13:24;;;;;;;15.20;7.20;;;;;4.20;97155.80;;;;111588;1243;41247;-67
2022/01/04 00:15:55;;;;;;;16.20;6.90;;;;;4.16;97157.00;;;;111528;1244;41245;-69
2022/01/04 00:18:25;;;;;;;14.00;6.40;;;;;4.10;97160.00;;;;111524;1244;41463;-69
2022/01/04 00:20:55;;;;;;;16.00;6.40;;;;;4.10;97163.60;;;;111564;1244;41605;-69
2022/01/04 00:23:24;;;;;;;14.20;6.40;;;;;4.10;97163.40;;;;111465;1244;41552;-66
2022/01/04 00:25:56;;;;;;;13.30;6.80;;;;;4.02;97167.80;;;;111428;1244;41155;-65
2022/01/04 00:28:25;;;;;;;14.80;6.20;;;;;4.00;97165.60;;;;111502;1245;42046;-64
2022/01/04 00:30:55;;;;;;;11.90;5.90;;;;;4.04;97174.00;;;;111308;1246;41175;-67
2022/01/04 00:33:25;;;;;;;12.30;6.00;;;;;4.04;97175.80;;;;111528;1243;41261;-66
2022/01/04 00:35:54;;;;;;;12.90;5.70;;;;;4.10;97181.60;;;;111537;1243;41145;-65
2022/01/04 00:38:24;;;;;;;12.90;5.20;;;;;4.08;97177.80;;;;111884;1241;41481;-65
2022/01/04 00:40:53;;;;;;;12.60;5.90;;;;;4.10;97176.80;;;;111785;1243;42356;-68
2022/01/04 00:43:23;;;;;;;13.80;5.70;;;;;4.10;97176.80;;;;111850;1241;41479;-65
2022/01/04 00:45:53;;;;;;;14.40;6.40;;;;;4.10;97177.40;;;;111650;1244;41581;-67
2022/01/04 00:50:53;;;;;;;15.50;7.50;;;;;4.16;97166.60;;;;111866;1244;41827;-66
2022/01/04 00:53:23;;;;;;;20.80;7.60;;;;;4.20;97171.40;;;;111698;1244;41245;-70
2022/01/04 00:55:53;;;;;;;18.30;8.60;;;;;4.20;97168.00;;;;111693;1243;41896;-66
2022/01/04 00:58:23;;;;;;;15.00;7.60;;;;;4.20;97164.00;;;;111505;1244;41709;-69
2022/01/04 01:00:52;;;;;;;15.00;7.70;;;;;4.20;97163.80;;;;111412;1244;42124;-68
2022/01/04 01:03:22;;;;;;;14.60;7.10;;;;;4.20;97157.40;;;;111800;1244;41138;-66
2022/01/04 01:05:52;;;;;;;13.90;7.20;;;;;4.20;97156.80;;;;111816;1244;41599;-66
2022/01/04 01:08:21;;;;;;;13.20;6.80;;;;;4.20;97165.60;;;;111808;1242;41757;-70
2022/01/04 01:10:51;;;;;;;13.00;6.60;;;;;4.20;97177.00;;;;111726;1242;41249;-70
2022/01/04 01:13:21;;;;;;;12.70;6.60;;;;;4.20;97169.60;;;;111720;1241;41249;-67
2022/01/04 01:15:51;;;;;;;14.00;6.60;;;;;4.20;97173.20;;;;111683;1244;41609;-67
2022/01/04 01:18:20;;;;;;;12.60;6.90;;;;;4.30;97164.20;;;;111651;1242;41135;-68
2022/01/04 01:20:50;;;;;;;15.30;7.40;;;;;4.30;97157.00;;;;111931;1240;41837;-70
2022/01/04 01:23:20;;;;;;;13.40;6.70;;;;;4.30;97164.80;;;;111876;1244;41238;-67
2022/01/04 01:25:51;;;;;;;14.10;6.90;;;;;4.30;97159.80;;;;111865;1244;41347;-66
2022/01/04 01:28:21;;;;;;;17.10;8.40;;;;;4.30;97161.20;;;;111885;1244;41368;-70
2022/01/04 01:30:51;;;;;;;16.50;8.70;;;;;4.30;97153.20;;;;111856;1243;42494;-66
2022/01/04 01:33:23;;;;;;;17.50;8.40;;;;;4.30;97159.80;;;;111863;1244;41140;-70
2022/01/04 01:35:55;;;;;;;16.80;7.90;;;;;4.30;97169.40;;;;111891;1241;41581;-70
2022/01/04 01:38:25;;;;;;;17.50;8.10;;;;;4.30;97166.20;;;;111823;1244;41249;-70
2022/01/04 01:40:54;;;;;;;13.70;7.00;;;;;4.32;97163.40;;;;111617;1244;41624;-71
2022/01/04 01:43:26;;;;;;;16.10;7.40;;;;;4.36;97162.00;;;;111834;1241;42187;-69
2022/01/04 01:45:56;;;;;;;13.60;7.00;;;;;4.40;97156.80;;;;111893;1241;41382;-71
2022/01/04 01:48:27;;;;;;;18.00;8.40;;;;;4.30;97152.00;;;;111471;1244;41151;-71
2022/01/04 01:50:58;;;;;;;14.50;7.00;;;;;4.30;97148.60;;;;111778;1241;41266;-71
2022/01/04 01:53:28;;;;;;;14.00;7.00;;;;;4.22;97144.60;;;;111838;1244;41150;-71
2022/01/04 01:55:58;;;;;;;11.90;6.20;;;;;4.20;97145.40;;;;111708;1241;42345;-70
2022/01/04 01:58:29;;;;;;;15.40;6.10;;;;;4.20;97145.40;;;;111668;1242;42449;-73
2022/01/04 02:00:58;;;;;;;13.30;6.10;;;;;4.20;97143.40;;;;111831;1241;41150;-73
2022/01/04 02:03:29;;;;;;;14.50;6.40;;;;;4.22;97143.80;;;;111527;1243;41238;-71
2022/01/04 02:05:59;;;;;;;11.80;5.80;;;;;4.30;97150.00;;;;111717;1243;41115;-67
2022/01/04 02:08:30;;;;;;;;;;;;;4.30;97154.00;;;;111645;1244;41285;-65
2022/01/04 02:11:00;;;;;;;10.60;5.30;;;;;4.30;97149.60;;;;111506;1244;41266;-68
2022/01/04 02:13:31;;;;;;;12.70;5.70;;;;;4.30;97142.80;;;;111877;1241;41586;-70
2022/01/04 02:16:02;;;;;;;11.80;5.90;;;;;4.24;97144.60;;;;111846;1244;41145;-67
2022/01/04 02:18:32;;;;;;;11.90;6.10;;;;;4.20;97148.40;;;;111933;1242;41246;-69
2022/01/04 02:21:02;;;;;;;12.00;5.60;;;;;4.20;97142.00;;;;111816;1242;41154;-67
2022/01/04 02:23:33;;;;;;;12.50;5.40;;;;;4.10;97137.40;;;;111813;1243;41149;-69
2022/01/04 02:26:03;;;;;;;11.90;5.80;;;;;4.10;97136.40;;;;111846;1241;41645;-67
2022/01/04 02:28:34;;;;;;;15.30;7.20;;;;;4.10;97137.00;;;;111713;1241;41121;-66
2022/01/04 02:31:03;;;;;;;19.10;8.90;;;;;4.10;97133.20;;;;111843;1242;41352;-70
2022/01/04 02:33:33;;;;;;;17.80;9.20;;;;;4.00;97132.60;;;;111613;1242;41169;-70
2022/01/04 02:36:04;;;;;;;17.40;8.20;;;;;4.00;97129.00;;;;111826;1241;41728;-69
2022/01/04 02:38:33;;;;;;;19.30;9.00;;;;;3.90;97131.20;;;;111819;1244;41145;-69
2022/01/04 02:41:03;;;;;;;14.90;6.90;;;;;3.86;97133.60;;;;111844;1241;41992;-69
2022/01/04 02:43:33;;;;;;;13.70;6.80;;;;;3.80;97137.80;;;;111757;1244;41105;-69
2022/01/04 02:46:03;;;;;;;13.60;6.70;;;;;3.80;97137.40;;;;111829;1241;41139;-72
2022/01/04 02:48:41;;;;;;;13.30;6.60;;;;;3.72;97139.80;;;;111883;1242;41233;-69
2022/01/04 02:51:11;;;;;;;13.90;6.70;;;;;3.70;97141.40;;;;111907;1241;41127;-67
2022/01/04 02:53:41;;;;;;;14.40;6.70;;;;;3.70;97145.80;;;;111926;1240;42366;-71
2022/01/04 02:56:11;;;;;;;11.60;5.20;;;;;3.70;97143.40;;;;111862;1242;41142;-70
2022/01/04 02:58:41;;;;;;;11.30;5.20;;;;;3.70;97147.00;;;;111870;1244;42295;-68
2022/01/04 03:01:11;;;;;;;13.50;6.20;;;;;3.66;97141.20;;;;111514;1241;41247;-69
2022/01/04 03:03:41;;;;;;;12.60;5.90;;;;;3.68;97141.00;;;;111838;1241;41620;-71
2022/01/04 03:06:14;;;;;;;16.00;5.80;;;;;3.68;97139.60;;;;111898;1241;41923;-71
2022/01/04 03:08:44;;;;;;;12.30;5.80;;;;;3.64;97131.00;;;;111919;1241;42155;-71
2022/01/04 03:11:14;;;;;;;11.30;5.40;;;;;3.60;97133.60;;;;111813;1242;41721;-69
2022/01/04 03:13:43;;;;;;;12.30;5.90;;;;;3.60;97129.20;;;;111865;1243;42379;-70
2022/01/04 03:16:13;;;;;;;12.10;5.50;;;;;3.60;97130.60;;;;111827;1242;41401;-71
2022/01/04 03:21:36;;;;;;;12.10;5.60;;;;;3.58;97125.20;;;;111876;1241;41117;-70
2022/01/04 03:24:09;;;;;;;12.00;5.20;;;;;3.50;97130.80;;;;111534;1241;41588;-70
2022/01/04 03:26:38;;;;;;;11.70;5.40;;;;;3.50;97120.40;;;;111875;1242;42335;-70
2022/01/04 03:29:11;;;;;;;10.70;5.20;;;;;3.50;97117.40;;;;111855;1241;41153;-70
2022/01/04 03:31:42;;;;;;;10.80;5.30;;;;;3.40;97118.20;;;;111926;1241;42346;-70
2022/01/04 03:34:13;;;;;;;12.20;6.20;;;;;3.40;97114.80;;;;111882;1241;42265;-71
2022/01/04 03:36:43;;;;;;;10.90;5.20;;;;;3.40;97111.20;;;;111854;1241;41425;-70
2022/01/04 03:39:13;;;;;;;11.60;5.10;;;;;3.32;97111.40;;;;111814;1242;41543;-70
2022/01/04 03:41:44;;;;;;;12.30;5.20;;;;;3.34;97110.20;;;;111886;1242;41145;-65
2022/01/04 03:44:18;;;;;;;13.60;5.50;;;;;3.34;97108.80;;;;111925;1241;41174;-69
2022/01/04 03:46:51;;;;;;;13.70;5.70;;;;;3.40;97115.60;;;;111904;1241;41353;-71
2022/01/04 03:49:22;;;;;;;10.90;5.00;;;;;3.40;97112.60;;;;111761;1243;41141;-71
2022/01/04 03:51:52;;;;;;;10.00;4.90;;;;;3.40;97109.40;;;;111859;1244;41719;-70
2022/01/04 03:54:22;;;;;;;12.00;5.80;;;;;3.42;97106.40;;;;111819;1241;41256;-71
2022/01/04 03:56:52;;;;;;;11.50;5.30;;;;;3.50;97105.60;;;;111863;1241;42256;-71
2022/01/04 03:59:23;;;;;;;12.60;5.40;;;;;3.50;97099.40;;;;111737;1242;41536;-69
2022/01/04 04:01:54;;;;;;;13.00;6.90;;;;;3.50;97104.00;;;;111719;1241;41138;-69
2022/01/04 04:04:25;;;;;;;13.30;6.30;;;;;3.50;97107.00;;;;111764;1241;41256;-73
2022/01/04 04:06:55;;;;;;;14.10;6.10;;;;;3.46;97110.40;;;;111575;1242;41138;-73
2022/01/04 04:09:25;;;;;;;13.10;6.40;;;;;3.40;97106.00;;;;111843;1242;41447;-70
2022/01/04 04:11:55;;;;;;;13.20;6.40;;;;;3.40;97103.60;;;;111804;1243;41132;-71
2022/01/04 04:14:25;;;;;;;15.00;7.10;;;;;3.40;97104.80;;;;111567;1242;41885;-72
2022/01/04 04:17:12;;;;;;;13.10;5.90;;;;;3.36;97102.00;;;;111565;1242;41364;-71
2022/01/04 04:19:42;;;;;;;13.00;5.80;;;;;3.30;97098.80;;;;111789;1242;41353;-69
2022/01/04 04:22:12;;;;;;;14.00;6.30;;;;;3.30;97095.00;;;;111731;1241;41702;-68
2022/01/04 04:24:42;;;;;;;12.20;6.00;;;;;3.30;97095.40;;;;111695;1242;41856;-69
2022/01/04 04:27:13;;;;;;;11.90;5.60;;;;;3.30;97099.60;;;;111755;1242;41241;-66
2022/01/04 04:29:42;;;;;;;;;;;;;3.28;97100.60;;;;111872;1241;41440;-69
2022/01/04 04:32:12;;;;;;;13.00;5.70;;;;;3.20;97092.80;;;;111866;1241;41244;-68
2022/01/04 04:34:41;;;;;;;12.70;5.80;;;;;3.10;97095.00;;;;111927;1241;41975;-68
2022/01/04 04:37:11;;;;;;;13.00;5.60;;;;;3.10;97097.00;;;;111877;1244;41187;-70
2022/01/04 04:39:41;;;;;;;11.10;5.20;;;;;3.10;97096.40;;;;111858;1244;41720;-68
2022/01/04 04:42:10;;;;;;;11.00;5.50;;;;;3.10;97102.40;;;;111870;1244;42783;-69
2022/01/04 04:44:39;;;;;;;12.10;5.60;;;;;3.06;97103.40;;;;111876;1241;42567;-68
2022/01/04 04:47:10;;;;;;;12.30;5.90;;;;;3.02;97103.60;;;;111791;1244;42367;-73
2022/01/04 04:49:55;;;;;;;14.40;7.60;;;;;3.00;97102.20;;;;111106;1244;41213;-73
2022/01/04 04:52:29;;;;;;;14.90;7.20;;;;;3.00;97106.80;;;;111436;1244;41124;-73
2022/01/04 04:55:01;;;;;;;13.30;6.30;;;;;3.00;97106.40;;;;111434;1243;41155;-72
2022/01/04 04:57:36;;;;;;;13.20;6.60;;;;;3.10;97103.80;;;;111331;1246;41606;-71
2022/01/04 05:00:09;;;;;;;15.10;6.70;;;;;3.10;97102.00;;;;111578;1244;41717;-73
2022/01/04 05:02:40;;;;;;;11.10;5.70;;;;;3.20;97101.80;;;;111445;1244;41146;-73
2022/01/04 05:05:12;;;;;;;12.50;6.10;;;;;3.20;97090.20;;;;111609;1244;41153;-73
2022/01/04 05:07:46;;;;;;;14.40;6.90;;;;;3.30;97088.60;;;;111537;1244;41801;-70
2022/01/04 05:10:19;;;;;;;12.00;6.00;;;;;3.30;97082.00;;;;111566;1243;41126;-68
2022/01/04 05:12:55;;;;;;;14.80;7.60;;;;;3.30;97083.20;;;;111841;1241;41211;-75
2022/01/04 05:15:32;;;;;;;13.60;6.20;;;;;3.30;97081.80;;;;111168;1244;42437;-76
2022/01/04 05:18:09;;;;;;;11.90;5.90;;;;;3.30;97085.60;;;;111269;1244;41501;-72
2022/01/04 05:20:43;;;;;;;11.70;5.90;;;;;3.30;97088.00;;;;111105;1244;42413;-73
2022/01/04 05:23:15;;;;;;;13.90;6.30;;;;;3.26;97084.20;;;;111228;1243;41601;-71
2022/01/04 05:25:48;;;;;;;12.20;5.90;;;;;3.30;97088.80;;;;111470;1243;41440;-71
2022/01/04 05:28:19;;;;;;;14.80;6.30;;;;;3.30;97086.20;;;;111218;1244;41190;-70
2022/01/04 05:30:54;;;;;;;14.30;7.30;;;;;3.30;97082.00;;;;111528;1244;41226;-73
2022/01/04 05:33:28;;;;;;;13.90;6.80;;;;;3.30;97082.40;;;;111148;1246;41142;-68
2022/01/04 05:36:02;;;;;;;16.70;7.30;;;;;3.40;97078.20;;;;111282;1244;42305;-73
2022/01/04 05:38:34;;;;;;;16.70;7.40;;;;;3.40;97074.40;;;;111310;1241;41361;-73
2022/01/04 05:41:08;;;;;;;15.50;6.80;;;;;3.40;97079.40;;;;111205;1244;41394;-72
2022/01/04 05:43:43;;;;;;;13.60;6.70;;;;;3.40;97083.20;;;;111136;1244;41606;-72
2022/01/04 05:46:27;;;;;;;13.30;6.90;;;;;3.46;97081.40;;;;111411;1244;41873;-70
2022/01/04 05:49:07;;;;;;;15.40;7.00;;;;;3.50;97072.40;;;;111286;1244;41253;-73
2022/01/04 05:51:42;;;;;;;13.00;6.60;;;;;3.50;97080.40;;;;111382;1243;41144;-72
2022/01/04 05:54:21;;;;;;;13.40;6.80;;;;;3.50;97078.40;;;;111542;1244;41138;-71
2022/01/04 05:56:56;;;;;;;13.50;6.20;;;;;3.50;97073.40;;;;111812;1243;41144;-67
2022/01/04 05:59:30;;;;;;;12.40;6.00;;;;;3.50;97070.40;;;;111578;1244;41797;-72
2022/01/04 06:02:07;;;;;;;13.60;6.40;;;;;3.50;97077.80;;;;111155;1243;41134;-72
2022/01/04 06:04:40;;;;;;;13.60;6.30;;;;;3.52;97081.80;;;;111272;1243;41332;-73
2022/01/04 06:07:22;;;;;;;13.00;6.40;;;;;3.60;97079.60;;;;111539;1244;42356;-73
2022/01/04 06:09:55;;;;;;;14.70;6.90;;;;;3.60;97078.60;;;;111241;1244;41154;-69
2022/01/04 06:15:12;;;;;;;12.30;6.00;;;;;3.70;97075.80;;;;111504;1242;40765;-71
2022/01/04 06:17:49;;;;;;;12.40;6.20;;;;;3.70;97067.00;;;;111598;1243;41763;-67
2022/01/04 06:20:27;;;;;;;14.20;6.70;;;;;3.76;97061.00;;;;111585;1243;41150;-71
2022/01/04 06:23:03;;;;;;;13.10;6.40;;;;;3.80;97070.00;;;;111497;1241;41139;-73
2022/01/04 06:25:44;;;;;;;12.80;6.70;;;;;3.86;97065.00;;;;111494;1244;41164;-72
2022/01/04 06:28:18;;;;;;;13.80;6.90;;;;;3.90;97069.40;;;;111163;1244;41587;-75
2022/01/04 06:30:57;;;;;;;13.60;6.50;;;;;3.92;97063.00;;;;111379;1244;41596;-74
2022/01/04 06:33:31;;;;;;;12.90;6.40;;;;;4.00;97064.00;;;;111611;1241;41118;-73
2022/01/04 06:36:03;;;;;;;13.10;7.00;;;;;4.10;97065.40;;;;111346;1243;41292;-73
2022/01/04 06:38:37;;;;;;;15.20;7.10;;;;;4.10;97066.00;;;;111368;1244;41152;-73
2022/01/04 06:41:08;;;;;;;14.40;6.90;;;;;4.20;97068.00;;;;111312;1244;41155;-69
2022/01/04 06:43:39;;;;;;;16.80;7.20;;;;;4.22;97069.40;;;;111725;1241;41123;-73
2022/01/04 06:46:13;;;;;;;13.80;7.00;;;;;4.30;97071.40;;;;111167;1242;41722;-67
2022/01/04 06:48:43;;;;;;;14.00;6.80;;;;;4.40;97072.60;;;;111357;1243;41569;-68
2022/01/04 06:51:12;;;;;;;16.50;8.60;;;;;4.50;97065.60;;;;111492;1243;41925;-72
2022/01/04 06:53:42;;;;;;;15.60;8.40;;;;;4.50;97060.00;;;;111789;1244;41143;-70
2022/01/04 06:56:11;;;;;;;19.00;8.40;;;;;4.60;97059.80;;;;111725;1241;41248;-71
2022/01/04 06:58:40;;;;;;;16.10;8.70;;;;;4.70;97063.20;;;;111316;1244;41260;-69
2022/01/04 07:01:09;;;;;;;18.60;10.40;;;;;4.72;97059.60;;;;111800;1242;42393;-68
2022/01/04 07:03:39;;;;;;;17.30;9.60;;;;;4.80;97056.40;;;;111616;1242;41697;-63
2022/01/04 07:06:10;;;;;;;;;;;;;4.80;97056.00;;;;111512;1244;41386;-69
2022/01/04 07:08:40;;;;;;;15.60;8.40;;;;;4.80;97056.00;;;;111840;1241;41120;-70
2022/01/04 07:11:09;;;;;;;15.70;8.50;;;;;4.80;97057.40;;;;111810;1240;41598;-70
2022/01/04 07:13:39;;;;;;;15.20;7.60;;;;;4.96;97058.00;;;;111682;1243;41159;-68
2022/01/04 07:16:08;;;;;;;13.60;7.40;;;;;5.12;97059.60;;;;111715;1241;41157;-68
2022/01/04 07:18:38;;;;;;;13.90;7.40;;;;;5.36;97056.20;;;;111558;1244;41617;-69
2022/01/04 07:21:08;;;;;;;16.50;7.80;;;;;5.62;97062.20;;;;111765;1244;41611;-71
2022/01/04 07:23:37;;;;;;;15.80;8.60;;;;;5.92;97055.80;;;;111692;1244;41236;-69
2022/01/04 07:26:06;;;;;;;14.00;7.40;;;;;6.24;97057.00;;;;111752;1241;41142;-67
2022/01/04 07:28:35;;;;;;;15.40;7.00;;;;;6.60;97059.00;;;;111770;1242;42357;-71
2022/01/04 07:31:11;;;;;;;13.50;7.10;;;;;7.00;97058.20;;;;111711;1241;41130;-70
2022/01/04 07:33:41;;;;;;;19.70;10.40;;;;;7.38;97053.00;;;;111490;1244;41136;-69
2022/01/04 07:36:10;;;;;;;18.20;9.40;;;;;7.72;97051.40;;;;111735;1241;41606;-69
2022/01/04 07:38:40;;;;;;;20.60;11.30;;;;;8.10;97045.80;;;;111704;1241;41334;-71
2022/01/04 07:41:10;;;;;;;22.20;12.30;;;;;8.40;97043.20;;;;111376;1244;41246;-70
2022/01/04 07:43:39;;;;;;;24.80;13.50;;;;;8.70;97033.80;;;;111413;1244;41603;-70
2022/01/04 07:46:08;;;;;;;27.40;15.30;;;;;9.06;97029.00;;;;111651;1241;41945;-71
2022/01/04 07:48:38;;;;;;;24.90;12.70;;;;;9.48;97025.20;;;;111749;1242;42015;-70
2022/01/04 07:51:07;;;;;;;25.00;12.40;;;;;9.70;97030.60;;;;111452;1244;41808;-71
2022/01/04 07:53:36;;;;;;;22.20;12.10;;;;;9.80;97030.40;;;;111668;1242;41144;-70
2022/01/04 07:56:06;;;;;;;19.70;10.30;;;;;9.90;97024.40;;;;111757;1241;41427;-69
2022/01/04 07:58:35;;;;;;;18.80;9.80;;;;;9.96;97019.80;;;;111477;1244;41597;-65
2022/01/04 08:01:04;;;;;;;17.40;10.10;;;;;9.92;97013.40;;;;111662;1241;41632;-70
2022/01/04 08:03:34;;;;;;;21.10;10.40;;;;;10.00;97003.60;;;;111736;1241;41192;-70
2022/01/04 08:06:04;;;;;;;17.80;9.50;;;;;10.10;96997.60;;;;111627;1241;41101;-66
2022/01/04 08:08:33;;;;;;;15.90;8.70;;;;;10.00;96999.80;;;;111720;1241;43063;-69
2022/01/04 08:11:02;;;;;;;17.10;8.70;;;;;9.94;97002.20;;;;111755;1241;41156;-64
2022/01/04 08:13:31;;;;;;;19.10;10.20;;;;;9.90;97003.20;;;;111728;1243;42827;-63
2022/01/04 08:16:01;;;;;;;18.40;10.10;;;;;9.90;97003.60;;;;111693;1241;42028;-66
2022/01/04 08:18:30;;;;;;;23.80;12.40;;;;;9.90;97008.60;;;;111706;1241;41105;-65
2022/01/04 08:21:12;;;;;;;20.30;11.60;;;;;10.00;97011.80;;;;111767;1243;41311;-66
2022/01/04 08:23:41;;;;;;;20.40;10.10;;;;;10.16;97017.80;;;;111807;1244;41251;-68
2022/01/04 08:26:10;;;;;;;14.80;8.20;;;;;10.54;97017.60;;;;111530;1244;41211;-70
2022/01/04 08:28:40;;;;;;;19.50;9.90;;;;;10.90;97021.20;;;;111705;1242;41169;-71
2022/01/04 08:31:09;;;;;;;21.40;10.80;;;;;11.10;97009.40;;;;111596;1243;41585;-70
2022/01/04 08:33:52;;;;;;;19.00;10.30;;;;;11.20;97005.00;;;;111724;1241;41750;-69
2022/01/04 08:36:22;;;;;;;25.40;12.60;;;;;11.30;96998.60;;;;111394;1244;41631;-67
2022/01/04 08:38:51;;;;;;;24.00;12.60;;;;;11.30;97001.40;;;;111559;1244;41260;-66
2022/01/04 08:41:20;;;;;;;22.10;11.50;;;;;11.50;97007.00;;;;111503;1244;41147;-67
2022/01/04 08:43:50;;;;;;;21.20;11.20;;;;;12.04;96995.40;;;;111787;1243;41936;-71
2022/01/04 08:46:19;;;;;;;19.70;10.90;;;;;12.52;96987.80;;;;111798;1243;41151;-69
2022/01/04 08:48:48;;;;;;;22.80;12.20;;;;;13.20;96967.60;;;;111875;1242;42276;-70
2022/01/04 08:51:18;;;;;;;19.70;10.40;;;;;14.38;96963.20;;;;111550;1244;41266;-67
2022/01/04 08:53:47;;;;;;;17.10;8.70;;;;;15.46;96953.60;;;;111753;1242;41193;-70
2022/01/04 08:56:18;;;;;;;13.70;7.40;;;;;16.44;96946.40;;;;111793;1242;41333;-70
2022/01/04 08:58:48;;;;;;;16.80;8.70;;;;;17.34;96938.20;;;;111580;1244;41137;-69
2022/01/04 09:01:17;;;;;;;14.10;6.00;;;;;18.00;96934.40;;;;111376;1243;471794;-70
2022/01/04 09:03:48;;;;;;;10.70;5.30;;;;;18.42;96932.20;;;;111765;1241;41138;-71
2022/01/04 09:06:17;;;;;;;9.20;3.50;;;;;19.02;96932.00;;;;111555;1241;41149;-67
2022/01/04 09:08:46;;;;;;;9.40;3.80;;;;;19.78;96932.20;;;;111911;1243;41701;-67
2022/01/04 09:11:17;;;;;;;9.60;3.40;;;;;20.46;96927.60;;;;111762;1241;42019;-70
2022/01/04 09:13:48;;;;;;;9.30;3.30;;;;;21.02;96918.80;;;;111773;1241;42357;-68
2022/01/04 09:18:46;;;;;;;7.70;2.90;;;;;21.90;96901.80;;;;111788;1241;41706;-70
2022/01/04 09:21:25;;;;;;;8.50;3.30;;;;;22.52;96897.80;;;;111823;1241;42330;-65
2022/01/04 09:23:57;;;;;;;8.50;3.20;;;;;22.90;96893.40;;;;111710;1241;41131;-70
2022/01/04 09:26:27;;;;;;;10.00;3.50;;;;;23.12;96890.20;;;;111808;1241;41893;-68
2022/01/04 09:28:56;;;;;;;7.30;3.00;;;;;23.40;96884.80;;;;111794;1241;41134;-65
2022/01/04 09:31:28;;;;;;;7.10;2.90;;;;;23.80;96884.60;;;;111806;1241;41615;-68
2022/01/04 09:33:59;;;;;;;8.20;3.00;;;;;24.00;96873.80;;;;111587;1244;41174;-67
2022/01/04 09:36:32;;;;;;;8.00;3.00;;;;;24.06;96870.40;;;;111792;1243;41462;-67
2022/01/04 09:39:03;;;;;;;5.30;2.20;;;;;24.10;96867.40;;;;111813;1241;41807;-69
2022/01/04 09:41:32;;;;;;;6.90;2.60;;;;;24.30;96864.60;;;;111829;1241;42302;-64
2022/01/04 09:44:02;;;;;;;6.10;2.30;;;;;24.40;96861.60;;;;111858;1241;41599;-64
2022/01/04 09:46:33;;;;;;;6.10;2.50;;;;;24.72;96868.00;;;;111841;1242;42159;-72
2022/01/04 09:49:02;;;;;;;6.10;2.30;;;;;25.00;96863.00;;;;111544;1241;41278;-64
2022/01/04 09:51:31;;;;;;;6.60;2.20;;;;;25.10;96871.00;;;;111494;1243;41174;-63
2022/01/04 09:54:01;;;;;;;6.10;2.30;;;;;25.20;96870.20;;;;111560;1243;42120;-64
2022/01/04 09:56:30;;;;;;;5.10;1.90;;;;;25.50;96859.80;;;;111528;1243;41141;-63
2022/01/04 09:59:00;;;;;;;4.50;1.80;;;;;25.80;96863.00;;;;111753;1241;41927;-65
2022/01/04 10:01:39;;;;;;;5.00;1.90;;;;;26.00;96849.00;;;;111828;1241;41261;-64
2022/01/04 10:04:23;;;;;;;4.90;2.00;;;;;26.56;96826.20;;;;111588;1243;41192;-65
2022/01/04 10:07:11;;;;;;;4.20;1.90;;;;;27.10;96822.60;;;;111615;1243;41914;-63
2022/01/04 10:09:45;;;;;;;6.70;1.80;;;;;27.22;96820.60;;;;111846;1241;41194;-63
2022/01/04 10:12:17;;;;;;;8.50;2.40;;;;;27.44;96817.00;;;;111784;1241;41891;-64
2022/01/04 10:14:49;;;;;;;5.10;1.80;;;;;27.86;96822.80;;;;111564;1241;41246;-65
2022/01/04 10:17:27;;;;;;;5.40;2.00;;;;;27.90;96823.60;;;;111878;1241;41115;-63
2022/01/04 10:19:59;;;;;;;3.50;1.70;;;;;28.00;96821.20;;;;111741;1242;41303;-72
2022/01/04 10:22:35;;;;;;;4.10;1.70;;;;;28.32;96821.40;;;;111880;1242;41340;-70
2022/01/04 10:25:04;;;;;;;5.00;2.10;;;;;28.58;96813.60;;;;111778;1243;41707;-71
2022/01/04 10:27:42;;;;;;;7.80;2.50;;;;;28.76;96799.60;;;;111864;1241;41314;-70
2022/01/04 10:30:23;;;;;;;6.10;2.00;;;;;28.00;96801.80;;;;111823;1242;41175;-69
2022/01/04 10:33:00;;;;;;;8.00;2.30;;;;;27.34;96802.20;;;;111834;1240;40793;-68
2022/01/04 10:35:33;;;;;;;5.70;1.90;;;;;26.46;96791.60;;;;111857;1242;41196;-71
2022/01/04 10:38:15;;;;;;;5.20;1.90;;;;;26.24;96779.80;;;;111837;1243;41233;-66
2022/01/04 10:40:49;;;;;;;6.10;2.20;;;;;26.30;96772.00;;;;111845;1241;41134;-64
2022/01/04 10:43:20;;;;;;;6.10;2.10;;;;;26.14;96769.60;;;;111859;1241;41240;-67
2022/01/04 10:45:51;;;;;;;6.00;2.50;;;;;26.12;96768.00;;;;111847;1242;41255;-71
2022/01/04 10:48:23;;;;;;;8.40;2.40;;;;;26.10;96773.80;;;;111851;1241;41176;-70
2022/01/04 10:50:58;;;;;;;8.50;2.90;;;;;25.70;96779.60;;;;111826;1241;41334;-69
2022/01/04 10:53:30;;;;;;;6.40;2.50;;;;;25.22;96781.00;;;;111852;1241;41243;-70
2022/01/04 10:56:05;;;;;;;7.20;2.30;;;;;24.26;96774.80;;;;111840;1241;41375;-66
2022/01/04 10:58:41;;;;;;;8.50;2.50;;;;;23.66;96776.80;;;;111602;1244;41230;-68
2022/01/04 11:01:19;;;;;;;5.50;2.00;;;;;22.92;96779.20;;;;111857;1241;41206;-67
2022/01/04 11:04:01;;;;;;;8.00;2.20;;;;;22.12;96779.60;;;;111857;1241;41348;-65
2022/01/04 11:06:34;;;;;;;6.30;2.20;;;;;21.24;96785.20;;;;111607;1243;41257;-70
2022/01/04 11:09:05;;;;;;;7.20;2.40;;;;;20.26;96780.80;;;;111871;1241;41301;-70
2022/01/04 11:11:35;;;;;;;7.70;2.50;;;;;19.66;96770.80;;;;111896;1241;41347;-70
2022/01/04 11:14:06;;;;;;;7.60;2.60;;;;;19.46;96784.40;;;;111866;1242;41175;-70
2022/01/04 11:16:35;;;;;;;8.20;2.40;;;;;18.38;96781.60;;;;111589;1243;41256;-67
2022/01/04 11:19:05;;;;;;;5.70;2.30;;;;;18.20;96786.20;;;;111563;1244;41206;-71
2022/01/04 11:21:37;;;;;;;6.80;2.20;;;;;17.80;96782.00;;;;111883;1241;41373;-67
2022/01/04 11:24:08;;;;;;;9.90;3.50;;;;;17.48;96777.40;;;;111860;1241;41146;-72
2022/01/04 11:26:41;;;;;;;11.40;2.70;;;;;17.10;96775.80;;;;111830;1241;42655;-69
2022/01/04 11:29:10;;;;;;;7.60;2.70;;;;;16.66;96772.40;;;;111759;1241;41975;-67
2022/01/04 11:31:54;;;;;;;7.40;2.50;;;;;16.14;96779.20;;;;111803;1241;41562;-65
2022/01/04 11:35:08;;;;;;;7.30;2.40;;;;;15.62;96775.60;;;;111843;1241;41708;-71
2022/01/04 11:37:41;;;;;;;8.10;2.60;;;;;15.10;96777.20;;;;111760;1241;41353;-70
2022/01/04 11:40:28;;;;;;;7.00;2.60;;;;;14.74;96771.20;;;;111648;1243;42054;-67
2022/01/04 11:42:58;;;;;;;10.20;3.10;;;;;14.60;96772.80;;;;111871;1241;41143;-69
2022/01/04 11:45:46;;;;;;;7.20;2.70;;;;;14.60;96765.20;;;;111815;1241;41265;-67
2022/01/04 11:48:36;;;;;;;9.50;2.80;;;;;14.60;96765.00;;;;111619;1243;41237;-70
2022/01/04 11:51:34;;;;;;;8.30;2.50;;;;;14.50;96764.40;;;;111759;1241;41441;-69
2022/01/04 11:54:27;;;;;;;11.00;3.00;;;;;14.40;96763.00;;;;111761;1241;41133;-71
2022/01/04 11:57:00;;;;;;;7.50;2.60;;;;;14.20;96763.60;;;;111677;1241;41570;-69
2022/01/04 11:59:35;;;;;;;6.40;2.40;;;;;14.10;96766.40;;;;111683;1241;41554;-70
2022/01/04 12:02:35;;;;;;;7.40;2.40;;;;;14.10;96762.80;;;;111708;1241;41585;-68
2022/01/04 12:05:22;;;;;;;6.00;2.30;;;;;14.00;96749.80;;;;111851;1241;41157;-67
2022/01/04 12:07:53;;;;;;;9.20;2.80;;;;;14.10;96751.60;;;;111845;1241;42371;-70
2022/01/04 12:10:22;;;;;;;7.90;2.80;;;;;14.28;96745.40;;;;111899;1241;41885;-70
2022/01/04 12:13:01;;;;;;;7.50;2.60;;;;;14.40;96732.80;;;;111779;1241;41168;-71
2022/01/04 12:15:33;;;;;;;6.50;2.30;;;;;14.70;96720.20;;;;111460;1241;41253;-68
2022/01/04 12:18:33;;;;;;;6.70;2.60;;;;;15.08;96712.20;;;;111729;1241;41259;-72
2022/01/04 12:21:22;;;;;;;6.20;2.30;;;;;15.46;96706.60;;;;111738;1241;41920;-64
2022/01/04 12:23:51;;;;;;;5.80;2.00;;;;;15.36;96708.40;;;;111508;1243;41427;-70
2022/01/04 12:26:22;;;;;;;7.80;2.30;;;;;15.36;96696.20;;;;111880;1241;41127;-66
2022/01/04 12:28:58;;;;;;;7.80;2.60;;;;;15.20;96699.00;;;;111855;1241;41843;-70
2022/01/04 12:31:29;;;;;;;7.30;2.30;;;;;15.10;96698.40;;;;111845;1242;41130;-69
2022/01/04 12:33:58;;;;;;;4.10;2.10;;;;;14.80;96691.80;;;;111875;1241;41346;-69
2022/01/04 12:36:37;;;;;;;6.70;2.40;;;;;14.80;96688.80;;;;111791;1241;41265;-71
2022/01/04 12:39:14;;;;;;;7.70;2.10;;;;;14.78;96690.80;;;;111599;1243;41250;-70
2022/01/04 12:41:46;;;;;;;7.60;2.30;;;;;14.78;96669.40;;;;111835;1241;41589;-69
2022/01/04 12:44:21;;;;;;;;;;;;;15.30;96665.40;;;;111873;1241;41602;-67